Time;durP1;ratioP1;P1;durP2;ratioP2;P2;SDS_P1;SDS_P2;PMS_P1;PMS_P2;Temp;Humidity;BMP_temperature;BMP_pressure;BME280_temperature;BME280_humidity;BME280_pressure;Samples;Min_cycle;Max_cycle;Signal;HPM_P1;HPM_P2
2022/11/07 00:01:10;;;;;;;1.50;1.50;;;;;;;;;;4995989;28;20429;-67
2022/11/07 00:03:36;;;;;;;1.70;1.60;;;;;;;;;;4996031;28;20420;-67
2022/11/07 00:06:02;;;;;;;1.90;1.80;;;;;;;;;;4996048;28;20772;-67
2022/11/07 00:08:30;;;;;;;1.53;1.53;;;;;;;;;;4995571;28;20452;-67
2022/11/07 00:10:57;;;;;;;1.60;1.60;;;;;;;;;;4995925;28;20448;-67
2022/11/07 00:13:24;;;;;;;2.47;2.37;;;;;;;;;;4995883;28;20485;-67
2022/11/07 00:15:50;;;;;;;2.40;2.30;;;;;;;;;;4995851;28;20513;-67
2022/11/07 00:18:16;;;;;;;2.10;2.00;;;;;;;;;;4995825;28;20452;-67
2022/11/07 00:20:42;;;;;;;2.10;2.10;;;;;;;;;;4996035;28;20428;-67
2022/11/07 00:26:12;;;;;;;2.47;2.30;;;;;;;;;;4995406;28;20927;-67
2022/11/07 00:28:39;;;;;;;2.07;2.07;;;;;;;;;;4995404;28;20824;-67
2022/11/07 00:31:06;;;;;;;1.60;1.50;;;;;;;;;;4995600;28;20421;-67
2022/11/07 00:36:35;;;;;;;1.97;1.77;;;;;;;;;;4995245;28;20912;-67
2022/11/07 00:39:01;;;;;;;2.27;2.00;;;;;;;;;;4995213;28;20413;-67
2022/11/07 00:41:28;;;;;;;1.57;1.47;;;;;;;;;;4995151;28;20413;-67
2022/11/07 00:43:54;;;;;;;3.30;1.30;;;;;;;;;;4995332;28;20424;-67
2022/11/07 00:46:20;;;;;;;6.43;1.20;;;;;;;;;;4995318;28;20417;-67
2022/11/07 00:48:46;;;;;;;3.03;1.10;;;;;;;;;;4995028;28;20429;-67
2022/11/07 00:51:12;;;;;;;1.07;1.07;;;;;;;;;;4994072;28;20898;-67
2022/11/07 00:53:38;;;;;;;1.03;1.03;;;;;;;;;;4994800;28;20599;-67
2022/11/07 00:56:06;;;;;;;2.23;0.77;;;;;;;;;;4995062;28;20429;-67
2022/11/07 00:58:32;;;;;;;0.70;0.70;;;;;;;;;;4995016;28;20421;-68
2022/11/07 01:00:58;;;;;;;1.90;0.80;;;;;;;;;;4994997;28;20425;-67
2022/11/07 01:06:10;;;;;;;0.93;0.80;;;;;;;;;;4994670;28;20499;-67
2022/11/07 01:08:36;;;;;;;0.80;0.80;;;;;;;;;;4994523;28;20469;-67
2022/11/07 01:11:04;;;;;;;4.50;1.13;;;;;;;;;;4994832;28;20425;-67
2022/11/07 01:13:30;;;;;;;2.00;0.73;;;;;;;;;;4994622;28;20429;-67
2022/11/07 01:15:56;;;;;;;0.83;0.83;;;;;;;;;;4994350;28;20425;-67
2022/11/07 01:18:22;;;;;;;2.57;1.20;;;;;;;;;;4994421;28;20413;-68
2022/11/07 01:20:48;;;;;;;0.70;0.70;;;;;;;;;;4994687;28;20432;-67
2022/11/07 01:23:14;;;;;;;0.80;0.80;;;;;;;;;;4994642;28;20409;-67
2022/11/07 01:25:41;;;;;;;2.43;0.70;;;;;;;;;;4994310;28;20416;-67
2022/11/07 01:28:08;;;;;;;0.90;0.90;;;;;;;;;;4994171;28;20780;-67
2022/11/07 01:30:37;;;;;;;3.47;0.67;;;;;;;;;;4994253;28;20426;-68
2022/11/07 01:33:03;;;;;;;1.00;1.00;;;;;;;;;;4994757;28;20959;-67
2022/11/07 01:35:29;;;;;;;1.07;1.07;;;;;;;;;;4994390;28;20559;-67
2022/11/07 01:37:55;;;;;;;1.10;1.10;;;;;;;;;;4994101;28;20418;-68
2022/11/07 01:40:21;;;;;;;0.70;0.70;;;;;;;;;;4994169;28;20417;-67
2022/11/07 01:42:47;;;;;;;0.87;0.87;;;;;;;;;;4994091;28;20409;-67
2022/11/07 01:45:18;;;;;;;0.70;0.70;;;;;;;;;;4994177;28;20804;-67
2022/11/07 01:47:44;;;;;;;2.63;0.83;;;;;;;;;;4994137;28;20405;-67
2022/11/07 01:50:10;;;;;;;0.87;0.80;;;;;;;;;;4994463;28;20432;-67
2022/11/07 01:55:39;;;;;;;1.40;0.50;;;;;;;;;;4993912;28;20511;-67
2022/11/07 01:58:07;;;;;;;1.00;0.90;;;;;;;;;;4993874;28;20416;-67
2022/11/07 02:00:34;;;;;;;0.80;0.80;;;;;;;;;;4994135;28;20841;-67
2022/11/07 02:03:02;;;;;;;1.17;1.17;;;;;;;;;;4993902;28;20843;-67
2022/11/07 02:05:31;;;;;;;1.67;1.00;;;;;;;;;;4993798;28;20913;-67
2022/11/07 02:07:57;;;;;;;0.90;0.90;;;;;;;;;;4993706;28;20886;-67
2022/11/07 02:10:23;;;;;;;1.50;0.77;;;;;;;;;;4992588;28;20826;-68
2022/11/07 02:12:49;;;;;;;2.73;0.83;;;;;;;;;;4994000;28;20433;-67
2022/11/07 02:15:15;;;;;;;2.10;1.00;;;;;;;;;;4994158;28;20503;-67
2022/11/07 02:17:41;;;;;;;2.63;0.73;;;;;;;;;;4993985;28;20817;-67
2022/11/07 02:20:07;;;;;;;1.33;0.67;;;;;;;;;;4993593;28;20429;-67
2022/11/07 02:22:43;;;;;;;0.80;0.80;;;;;;;;;;4993911;28;20475;-67
2022/11/07 02:25:11;;;;;;;0.70;0.70;;;;;;;;;;4993903;28;20425;-67
2022/11/07 02:27:38;;;;;;;1.00;0.83;;;;;;;;;;4994593;28;20429;-67
2022/11/07 02:30:09;;;;;;;1.37;0.80;;;;;;;;;;4993868;28;20432;-67
2022/11/07 02:32:35;;;;;;;2.90;0.70;;;;;;;;;;4993610;28;20393;-67
2022/11/07 02:35:03;;;;;;;0.70;0.70;;;;;;;;;;4993497;28;20480;-67
2022/11/07 02:37:30;;;;;;;3.80;0.80;;;;;;;;;;4993571;28;20450;-67
2022/11/07 02:39:57;;;;;;;0.83;0.70;;;;;;;;;;4993769;28;20929;-67
2022/11/07 02:42:23;;;;;;;1.83;0.67;;;;;;;;;;4993717;28;20421;-67
2022/11/07 02:44:50;;;;;;;2.27;0.80;;;;;;;;;;4993755;28;20782;-67
2022/11/07 02:47:16;;;;;;;1.00;0.87;;;;;;;;;;4993343;28;20421;-67
2022/11/07 02:49:42;;;;;;;2.47;0.83;;;;;;;;;;4993411;28;20940;-67
2022/11/07 02:52:08;;;;;;;1.07;1.07;;;;;;;;;;4993403;28;20429;-67
2022/11/07 02:54:34;;;;;;;1.90;1.57;;;;;;;;;;4993559;28;20480;-67
2022/11/07 02:57:00;;;;;;;2.37;1.67;;;;;;;;;;4992389;28;20901;-67
2022/11/07 02:59:26;;;;;;;0.60;0.60;;;;;;;;;;4993533;28;20425;-67
2022/11/07 03:01:52;;;;;;;1.57;1.53;;;;;;;;;;4993323;28;20410;-67
2022/11/07 03:04:18;;;;;;;3.40;0.90;;;;;;;;;;4993774;28;20537;-67
2022/11/07 03:06:44;;;;;;;0.90;0.90;;;;;;;;;;4993487;28;20464;-67
2022/11/07 03:09:11;;;;;;;9.37;1.00;;;;;;;;;;4993521;28;20568;-67
2022/11/07 03:11:37;;;;;;;1.90;1.00;;;;;;;;;;4993776;28;20930;-67
2022/11/07 03:14:03;;;;;;;1.07;1.07;;;;;;;;;;4994361;28;20469;-67
2022/11/07 03:16:29;;;;;;;2.23;0.70;;;;;;;;;;4996993;28;20436;-67
2022/11/07 03:18:55;;;;;;;1.10;1.10;;;;;;;;;;4996683;28;20424;-67
2022/11/07 03:21:21;;;;;;;1.53;0.80;;;;;;;;;;4996657;28;20424;-67
2022/11/07 03:23:47;;;;;;;0.90;0.90;;;;;;;;;;4996631;28;20421;-67
2022/11/07 03:26:13;;;;;;;2.77;1.10;;;;;;;;;;4996571;28;20417;-67
2022/11/07 03:28:39;;;;;;;0.97;0.97;;;;;;;;;;4996441;28;20424;-67
2022/11/07 03:31:05;;;;;;;0.87;0.87;;;;;;;;;;4996535;28;20790;-67
2022/11/07 03:33:31;;;;;;;1.33;1.23;;;;;;;;;;4996829;28;20429;-67
2022/11/07 03:35:57;;;;;;;1.77;1.23;;;;;;;;;;4996661;28;20962;-67
2022/11/07 03:38:23;;;;;;;1.03;1.03;;;;;;;;;;4996422;28;20413;-67
2022/11/07 03:40:49;;;;;;;5.60;0.87;;;;;;;;;;4996641;28;20912;-67
2022/11/07 03:43:15;;;;;;;0.83;0.80;;;;;;;;;;4996709;28;20433;-67
2022/11/07 03:45:41;;;;;;;0.80;0.80;;;;;;;;;;4996170;28;20479;-67
2022/11/07 03:48:07;;;;;;;4.57;0.90;;;;;;;;;;4996119;28;20472;-67
2022/11/07 03:50:33;;;;;;;0.80;0.80;;;;;;;;;;4996152;28;20421;-67
2022/11/07 03:52:59;;;;;;;2.80;1.30;;;;;;;;;;4996311;28;20424;-68
2022/11/07 03:55:25;;;;;;;1.07;0.73;;;;;;;;;;4995930;28;20468;-67
2022/11/07 03:57:51;;;;;;;1.10;1.10;;;;;;;;;;4995984;28;20893;-67
2022/11/07 04:00:17;;;;;;;2.13;0.70;;;;;;;;;;4996213;28;20448;-67
2022/11/07 04:02:43;;;;;;;1.07;1.07;;;;;;;;;;4994660;28;20507;-68
2022/11/07 04:05:10;;;;;;;1.03;0.83;;;;;;;;;;4996109;28;20429;-67
2022/11/07 04:07:37;;;;;;;0.70;0.67;;;;;;;;;;4995514;28;20813;-68
2022/11/07 04:10:03;;;;;;;1.13;0.60;;;;;;;;;;4996016;28;20437;-68
2022/11/07 04:17:59;;;;;;;0.70;0.63;;;;;;;;;;4995883;28;20389;-67
2022/11/07 04:20:25;;;;;;;1.17;0.67;;;;;;;;;;4995539;28;20429;-67
2022/11/07 04:22:51;;;;;;;2.20;0.83;;;;;;;;;;4995775;28;20428;-67
2022/11/07 04:25:17;;;;;;;0.47;0.47;;;;;;;;;;4995329;28;20425;-68
2022/11/07 04:27:43;;;;;;;0.80;0.63;;;;;;;;;;4995695;28;20431;-68
2022/11/07 04:30:21;;;;;;;1.07;1.07;;;;;;;;;;4995641;28;20445;-68
2022/11/07 04:32:48;;;;;;;4.77;0.80;;;;;;;;;;4995624;28;20778;-69
2022/11/07 04:35:14;;;;;;;0.40;0.40;;;;;;;;;;4995732;28;20499;-67
2022/11/07 04:37:40;;;;;;;8.10;1.33;;;;;;;;;;4995241;28;20426;-67
2022/11/07 04:40:07;;;;;;;3.60;0.87;;;;;;;;;;4995174;28;20425;-67
2022/11/07 04:42:33;;;;;;;0.60;0.60;;;;;;;;;;4995167;28;20417;-68
2022/11/07 04:44:59;;;;;;;2.50;0.83;;;;;;;;;;4995051;28;20439;-68
2022/11/07 04:47:25;;;;;;;5.00;0.70;;;;;;;;;;4995356;28;20842;-68
2022/11/07 04:49:51;;;;;;;1.10;1.10;;;;;;;;;;4995026;28;20480;-68
2022/11/07 04:52:17;;;;;;;0.70;0.70;;;;;;;;;;4995446;28;20414;-68
2022/11/07 04:54:43;;;;;;;3.40;0.90;;;;;;;;;;4993560;28;20992;-68
2022/11/07 04:57:09;;;;;;;2.93;0.90;;;;;;;;;;4994875;28;20417;-67
2022/11/07 04:59:35;;;;;;;1.20;0.97;;;;;;;;;;4994839;28;20429;-68
2022/11/07 05:02:01;;;;;;;0.73;0.73;;;;;;;;;;4993507;28;20821;-68
2022/11/07 05:04:27;;;;;;;1.23;0.90;;;;;;;;;;4995021;28;20425;-67
2022/11/07 05:06:53;;;;;;;1.23;1.00;;;;;;;;;;4994353;28;20472;-67
2022/11/07 05:09:19;;;;;;;1.30;0.90;;;;;;;;;;4994847;28;20437;-67
2022/11/07 05:11:46;;;;;;;3.47;0.50;;;;;;;;;;4994857;28;20460;-68
2022/11/07 05:14:12;;;;;;;0.83;0.80;;;;;;;;;;4994680;28;20551;-68
2022/11/07 05:16:39;;;;;;;0.90;0.90;;;;;;;;;;4994731;28;20533;-67
2022/11/07 05:19:05;;;;;;;8.90;1.00;;;;;;;;;;4994699;28;20421;-68
2022/11/07 05:21:31;;;;;;;1.77;0.90;;;;;;;;;;4994643;28;20421;-67
2022/11/07 05:23:57;;;;;;;0.70;0.60;;;;;;;;;;4994707;28;20425;-68
2022/11/07 05:26:23;;;;;;;0.77;0.77;;;;;;;;;;4994630;28;20512;-68
2022/11/07 05:28:48;;;;;;;0.93;0.90;;;;;;;;;;4994491;28;20908;-67
2022/11/07 05:31:16;;;;;;;1.17;0.90;;;;;;;;;;4994345;28;20515;-67
2022/11/07 05:33:42;;;;;;;2.40;0.90;;;;;;;;;;4994442;28;20456;-68
2022/11/07 05:36:12;;;;;;;5.77;0.90;;;;;;;;;;4993784;28;20565;-68
2022/11/07 05:38:39;;;;;;;3.67;1.00;;;;;;;;;;4994501;28;20421;-68
2022/11/07 05:41:05;;;;;;;0.77;0.77;;;;;;;;;;4994011;28;20464;-68
2022/11/07 05:43:31;;;;;;;0.63;0.63;;;;;;;;;;4994319;28;20511;-68
2022/11/07 05:46:01;;;;;;;1.00;1.00;;;;;;;;;;4994525;28;20433;-68
2022/11/07 05:48:27;;;;;;;3.30;0.90;;;;;;;;;;4993990;28;20410;-67
2022/11/07 05:50:53;;;;;;;0.73;0.73;;;;;;;;;;4994297;28;20936;-68
2022/11/07 05:53:20;;;;;;;2.30;1.63;;;;;;;;;;4993929;28;20444;-68
2022/11/07 05:55:46;;;;;;;2.63;0.80;;;;;;;;;;4994288;28;20502;-68
2022/11/07 05:58:12;;;;;;;0.60;0.60;;;;;;;;;;4993845;28;20417;-68
2022/11/07 06:00:38;;;;;;;1.17;0.90;;;;;;;;;;4994630;28;20436;-69
2022/11/07 06:03:04;;;;;;;0.53;0.53;;;;;;;;;;4994072;28;20417;-68
2022/11/07 06:05:30;;;;;;;0.97;0.93;;;;;;;;;;4993806;28;20428;-68
2022/11/07 06:07:56;;;;;;;2.73;1.00;;;;;;;;;;4993711;28;20473;-69
2022/11/07 06:10:23;;;;;;;3.80;1.20;;;;;;;;;;4993732;28;20456;-67
2022/11/07 06:12:58;;;;;;;4.13;1.70;;;;;;;;;;4993957;28;20422;-67
2022/11/07 06:15:25;;;;;;;0.90;0.90;;;;;;;;;;4993837;28;20487;-68
2022/11/07 06:17:51;;;;;;;5.03;1.50;;;;;;;;;;4993941;28;20413;-68
2022/11/07 06:20:17;;;;;;;4.60;1.63;;;;;;;;;;4993940;28;20432;-67
2022/11/07 06:22:43;;;;;;;0.70;0.70;;;;;;;;;;4994350;28;20556;-67
2022/11/07 06:25:09;;;;;;;2.87;1.20;;;;;;;;;;4993581;28;20905;-68
2022/11/07 06:27:34;;;;;;;0.80;0.80;;;;;;;;;;4994143;28;20754;-68
2022/11/07 06:30:00;;;;;;;3.70;1.23;;;;;;;;;;4993502;28;20428;-67
2022/11/07 06:32:27;;;;;;;4.10;0.70;;;;;;;;;;4993805;28;20456;-68
2022/11/07 06:34:53;;;;;;;1.13;0.80;;;;;;;;;;4993735;28;20485;-69
2022/11/07 06:37:19;;;;;;;5.73;1.17;;;;;;;;;;4993484;28;20416;-69
2022/11/07 06:39:45;;;;;;;7.40;1.20;;;;;;;;;;4993447;28;20773;-68
2022/11/07 06:42:11;;;;;;;0.90;0.90;;;;;;;;;;4993389;28;20507;-69
2022/11/07 06:44:37;;;;;;;0.93;0.73;;;;;;;;;;4993668;28;20528;-68
2022/11/07 06:47:03;;;;;;;0.90;0.90;;;;;;;;;;4993557;28;20417;-68
2022/11/07 06:49:29;;;;;;;2.10;0.83;;;;;;;;;;4995424;28;20500;-68
2022/11/07 06:51:55;;;;;;;3.23;1.07;;;;;;;;;;4996979;28;20441;-68
2022/11/07 06:54:21;;;;;;;1.27;0.80;;;;;;;;;;4997186;28;20507;-69
2022/11/07 06:56:47;;;;;;;3.43;1.20;;;;;;;;;;4996663;28;20520;-69
2022/11/07 06:59:13;;;;;;;0.80;0.80;;;;;;;;;;4996852;28;20421;-68
2022/11/07 07:01:42;;;;;;;2.20;0.60;;;;;;;;;;4996541;28;20749;-69
2022/11/07 07:04:10;;;;;;;4.40;0.63;;;;;;;;;;4996944;28;20421;-68
2022/11/07 07:06:37;;;;;;;0.70;0.70;;;;;;;;;;4996548;28;20459;-69
2022/11/07 07:09:05;;;;;;;1.43;1.43;;;;;;;;;;4997072;28;20417;-68
2022/11/07 07:11:31;;;;;;;4.43;1.10;;;;;;;;;;4996644;28;20839;-67
2022/11/07 07:13:57;;;;;;;0.70;0.70;;;;;;;;;;4996640;28;20984;-68
2022/11/07 07:16:23;;;;;;;2.40;1.40;;;;;;;;;;4996517;28;20424;-67
2022/11/07 07:18:49;;;;;;;2.73;1.20;;;;;;;;;;4996932;28;20423;-68
2022/11/07 07:21:15;;;;;;;2.50;1.03;;;;;;;;;;4995266;28;20469;-68
2022/11/07 07:23:41;;;;;;;1.20;1.10;;;;;;;;;;4996553;28;20811;-68
2022/11/07 07:26:09;;;;;;;2.50;0.60;;;;;;;;;;4996784;28;20428;-67
2022/11/07 07:28:36;;;;;;;2.37;0.80;;;;;;;;;;4996572;28;20425;-67
2022/11/07 07:31:14;;;;;;;2.43;0.90;;;;;;;;;;4996260;28;20909;-68
2022/11/07 07:33:43;;;;;;;2.73;0.80;;;;;;;;;;4996281;28;20433;-69
2022/11/07 07:36:10;;;;;;;0.63;0.63;;;;;;;;;;4996330;28;20435;-69
2022/11/07 07:38:36;;;;;;;0.63;0.63;;;;;;;;;;4996536;28;20452;-69
2022/11/07 07:41:02;;;;;;;2.53;0.80;;;;;;;;;;4996507;28;20457;-67
2022/11/07 07:43:28;;;;;;;0.70;0.70;;;;;;;;;;4996087;28;20833;-69
2022/11/07 07:45:57;;;;;;;1.03;1.03;;;;;;;;;;4996313;28;20516;-67
2022/11/07 07:48:23;;;;;;;1.30;1.20;;;;;;;;;;4996169;28;20852;-68
2022/11/07 07:50:49;;;;;;;3.20;1.43;;;;;;;;;;4995793;28;20416;-68
2022/11/07 07:53:15;;;;;;;0.93;0.93;;;;;;;;;;4996242;28;20774;-67
2022/11/07 07:55:41;;;;;;;3.20;1.13;;;;;;;;;;4995772;28;20500;-67
2022/11/07 07:58:07;;;;;;;0.70;0.70;;;;;;;;;;4996387;28;20905;-68
2022/11/07 08:00:34;;;;;;;0.77;0.77;;;;;;;;;;4995729;28;20457;-67
2022/11/07 08:03:03;;;;;;;1.50;1.40;;;;;;;;;;4995933;28;20503;-68
2022/11/07 08:05:31;;;;;;;0.90;0.70;;;;;;;;;;4995699;28;20432;-67
2022/11/07 08:07:57;;;;;;;1.07;1.00;;;;;;;;;;4995630;28;20475;-68
2022/11/07 08:10:23;;;;;;;2.60;0.73;;;;;;;;;;4995630;28;20421;-67
2022/11/07 08:15:53;;;;;;;1.20;1.10;;;;;;;;;;4995495;28;20987;-62
2022/11/07 08:18:20;;;;;;;4.90;1.33;;;;;;;;;;4995790;28;20424;-66
2022/11/07 08:20:48;;;;;;;0.90;0.90;;;;;;;;;;4995687;28;20505;-68
2022/11/07 08:23:14;;;;;;;0.70;0.70;;;;;;;;;;4995723;28;20740;-67
2022/11/07 08:25:40;;;;;;;1.63;0.90;;;;;;;;;;4995564;28;20476;-67
2022/11/07 08:28:07;;;;;;;1.63;0.97;;;;;;;;;;4995427;28;20452;-67
2022/11/07 08:30:34;;;;;;;4.00;1.40;;;;;;;;;;4995149;28;20525;-67
2022/11/07 08:33:00;;;;;;;1.23;0.80;;;;;;;;;;4995074;28;20417;-70
2022/11/07 08:35:26;;;;;;;1.90;0.93;;;;;;;;;;4995717;28;20520;-68
2022/11/07 08:37:52;;;;;;;1.63;0.77;;;;;;;;;;4995244;28;20417;-69
2022/11/07 08:40:18;;;;;;;1.10;1.10;;;;;;;;;;4995106;28;20921;-67
2022/11/07 08:42:44;;;;;;;1.13;1.13;;;;;;;;;;4995394;28;20495;-69
2022/11/07 08:45:10;;;;;;;0.90;0.90;;;;;;;;;;4995597;28;20890;-67
2022/11/07 08:47:36;;;;;;;3.20;0.93;;;;;;;;;;4995249;28;20814;-68
2022/11/07 08:50:03;;;;;;;1.00;0.80;;;;;;;;;;4994848;28;20821;-68
2022/11/07 08:52:29;;;;;;;2.63;0.90;;;;;;;;;;4994917;28;20416;-69
2022/11/07 08:54:55;;;;;;;2.00;0.90;;;;;;;;;;4994784;28;20477;-68
2022/11/07 08:57:21;;;;;;;0.87;0.87;;;;;;;;;;4994275;28;20764;-67
2022/11/07 08:59:47;;;;;;;0.80;0.80;;;;;;;;;;4994914;28;20515;-68
2022/11/07 09:02:13;;;;;;;7.90;1.10;;;;;;;;;;4994653;28;20429;-68
2022/11/07 09:04:39;;;;;;;0.60;0.60;;;;;;;;;;4994690;28;20517;-67
2022/11/07 09:07:05;;;;;;;1.40;0.83;;;;;;;;;;4994340;28;20466;-67
2022/11/07 09:09:31;;;;;;;2.83;0.87;;;;;;;;;;4994835;28;20433;-68
2022/11/07 09:11:57;;;;;;;5.80;1.10;;;;;;;;;;4994070;28;20425;-69
2022/11/07 09:14:23;;;;;;;1.17;0.80;;;;;;;;;;4994584;28;20521;-69
2022/11/07 09:16:49;;;;;;;5.60;0.97;;;;;;;;;;4994397;28;20897;-68
2022/11/07 09:19:15;;;;;;;0.97;0.90;;;;;;;;;;4994289;28;20416;-68
2022/11/07 09:21:44;;;;;;;1.27;0.80;;;;;;;;;;4994837;28;20935;-69
2022/11/07 09:24:10;;;;;;;3.73;2.70;;;;;;;;;;4994279;28;20957;-69
2022/11/07 09:26:36;;;;;;;1.90;1.03;;;;;;;;;;4994527;28;20505;-69
2022/11/07 09:29:02;;;;;;;1.60;1.50;;;;;;;;;;4994429;28;20877;-68
2022/11/07 09:31:28;;;;;;;2.73;1.20;;;;;;;;;;4993990;28;20409;-68
2022/11/07 09:33:54;;;;;;;3.33;0.83;;;;;;;;;;4994759;28;20417;-68
2022/11/07 09:36:21;;;;;;;0.67;0.67;;;;;;;;;;4994359;28;20432;-69
2022/11/07 09:38:48;;;;;;;0.90;0.90;;;;;;;;;;4993780;28;20409;-68
2022/11/07 09:41:29;;;;;;;1.20;1.10;;;;;;;;;;4994045;28;20482;-69
2022/11/07 09:44:03;;;;;;;2.90;0.80;;;;;;;;;;4993894;28;20885;-67
2022/11/07 09:46:39;;;;;;;2.57;1.57;;;;;;;;;;4993996;28;20806;-70
2022/11/07 09:49:23;;;;;;;1.80;1.10;;;;;;;;;;4993894;28;20889;-69
2022/11/07 09:51:56;;;;;;;9.87;1.90;;;;;;;;;;4994130;28;20420;-68
2022/11/07 09:54:24;;;;;;;4.20;1.17;;;;;;;;;;4994048;28;20495;-68
2022/11/07 09:56:50;;;;;;;1.50;1.00;;;;;;;;;;4993829;28;20914;-68
2022/11/07 09:59:20;;;;;;;1.90;0.80;;;;;;;;;;4994033;28;20422;-68
2022/11/07 10:01:46;;;;;;;3.73;0.90;;;;;;;;;;4993856;28;20412;-68
2022/11/07 10:04:17;;;;;;;4.93;1.00;;;;;;;;;;4993714;28;20747;-68
2022/11/07 10:06:48;;;;;;;2.93;0.70;;;;;;;;;;4993497;28;20465;-68
2022/11/07 10:09:25;;;;;;;0.90;0.90;;;;;;;;;;4993658;28;20922;-67
2022/11/07 10:11:57;;;;;;;1.33;1.00;;;;;;;;;;4993942;28;20415;-68
2022/11/07 10:14:28;;;;;;;3.50;1.23;;;;;;;;;;4993812;28;20948;-68
2022/11/07 10:17:02;;;;;;;3.67;0.97;;;;;;;;;;4993988;28;20437;-67
2022/11/07 10:19:37;;;;;;;1.77;0.93;;;;;;;;;;4993896;28;20448;-68
2022/11/07 10:22:21;;;;;;;1.73;0.70;;;;;;;;;;4993579;28;20439;-68
2022/11/07 10:25:13;;;;;;;4.60;1.10;;;;;;;;;;4997986;28;20745;-68
2022/11/07 10:27:39;;;;;;;3.30;1.03;;;;;;;;;;5003852;28;20429;-68
2022/11/07 10:30:14;;;;;;;2.47;1.13;;;;;;;;;;4997912;28;20417;-68
2022/11/07 10:32:40;;;;;;;4.37;1.80;;;;;;;;;;4997798;28;20411;-71
2022/11/07 10:35:12;;;;;;;0.93;0.93;;;;;;;;;;4997539;28;20468;-70
2022/11/07 10:37:38;;;;;;;1.67;1.37;;;;;;;;;;4997517;28;20881;-69
2022/11/07 10:40:15;;;;;;;1.33;1.23;;;;;;;;;;4997561;28;20453;-68
2022/11/07 10:42:43;;;;;;;4.03;1.17;;;;;;;;;;4997264;28;20413;-67
2022/11/07 10:45:16;;;;;;;1.83;0.87;;;;;;;;;;4997395;28;20432;-68
2022/11/07 10:47:42;;;;;;;0.90;0.90;;;;;;;;;;4997143;28;20413;-68
2022/11/07 10:50:19;;;;;;;1.00;1.00;;;;;;;;;;4997547;28;20448;-68
2022/11/07 10:52:58;;;;;;;1.17;0.73;;;;;;;;;;4997116;28;20421;-68
2022/11/07 10:55:25;;;;;;;0.90;0.90;;;;;;;;;;4997183;28;20469;-68
2022/11/07 10:57:58;;;;;;;1.40;0.83;;;;;;;;;;4996896;28;20955;-68
2022/11/07 11:00:24;;;;;;;1.17;0.70;;;;;;;;;;4996907;28;20401;-68
2022/11/07 11:02:51;;;;;;;0.90;0.90;;;;;;;;;;4997176;28;20432;-67
2022/11/07 11:05:23;;;;;;;4.47;1.43;;;;;;;;;;4996815;28;20962;-69
2022/11/07 11:07:49;;;;;;;1.80;1.67;;;;;;;;;;4996646;28;20484;-67
2022/11/07 11:10:20;;;;;;;3.83;2.50;;;;;;;;;;4996725;28;20441;-67
2022/11/07 11:12:46;;;;;;;2.40;1.47;;;;;;;;;;4996665;28;20413;-69
2022/11/07 11:15:14;;;;;;;4.37;4.13;;;;;;;;;;4996812;28;20616;-68
2022/11/07 11:17:40;;;;;;;2.03;1.93;;;;;;;;;;4996926;28;20508;-68
2022/11/07 11:20:08;;;;;;;5.67;3.00;;;;;;;;;;4996565;28;20421;-69
2022/11/07 11:22:40;;;;;;;5.20;1.30;;;;;;;;;;4996815;28;20507;-68
2022/11/07 11:25:09;;;;;;;0.60;0.60;;;;;;;;;;4996697;28;20816;-69
2022/11/07 11:27:37;;;;;;;1.53;1.33;;;;;;;;;;4996459;28;20925;-68
2022/11/07 11:30:06;;;;;;;1.70;1.17;;;;;;;;;;4996485;28;20794;-70
2022/11/07 11:32:32;;;;;;;46.77;20.93;;;;;;;;;;4996410;28;20425;-68
2022/11/07 11:35:05;;;;;;;28.33;15.43;;;;;;;;;;4995739;28;20485;-69
2022/11/07 11:37:33;;;;;;;8.80;5.50;;;;;;;;;;4996674;28;20449;-69
2022/11/07 11:40:06;;;;;;;12.97;7.40;;;;;;;;;;4996237;28;20444;-68
2022/11/07 11:42:50;;;;;;;11.23;6.27;;;;;;;;;;4996517;28;20754;-69
2022/11/07 11:45:19;;;;;;;3.00;1.00;;;;;;;;;;4994935;28;20429;-68
2022/11/07 11:47:59;;;;;;;1.40;1.00;;;;;;;;;;4996484;28;20510;-68
2022/11/07 11:50:31;;;;;;;1.00;1.00;;;;;;;;;;4996391;28;20405;-69
2022/11/07 11:52:57;;;;;;;4.60;1.00;;;;;;;;;;4996015;28;20899;-69
2022/11/07 11:55:25;;;;;;;2.03;1.00;;;;;;;;;;4996178;28;20853;-68
2022/11/07 11:58:17;;;;;;;2.13;1.90;;;;;;;;;;4996592;28;20417;-69
2022/11/07 12:00:49;;;;;;;1.33;0.87;;;;;;;;;;4996481;28;20504;-68
2022/11/07 12:03:33;;;;;;;4.27;1.00;;;;;;;;;;4996184;28;20603;-68
2022/11/07 12:06:15;;;;;;;1.30;1.27;;;;;;;;;;4996076;28;20944;-68
2022/11/07 12:09:00;;;;;;;0.93;0.93;;;;;;;;;;4995837;28;20563;-69
2022/11/07 12:11:32;;;;;;;5.97;1.10;;;;;;;;;;4995961;28;20817;-68
2022/11/07 12:14:06;;;;;;;1.17;1.03;;;;;;;;;;4996170;28;20409;-69
2022/11/07 12:16:37;;;;;;;3.50;0.90;;;;;;;;;;4995591;28;20406;-69
2022/11/07 12:19:03;;;;;;;0.77;0.70;;;;;;;;;;4995698;28;20444;-68
2022/11/07 12:21:33;;;;;;;1.23;0.90;;;;;;;;;;4995508;28;20786;-71
2022/11/07 12:24:02;;;;;;;1.93;1.00;;;;;;;;;;4995680;28;20417;-70
2022/11/07 12:26:34;;;;;;;1.47;0.70;;;;;;;;;;4995637;28;20425;-69
2022/11/07 12:29:08;;;;;;;4.50;0.70;;;;;;;;;;4995456;28;20417;-70
2022/11/07 12:31:34;;;;;;;3.50;0.90;;;;;;;;;;4995613;28;20389;-70
2022/11/07 12:34:00;;;;;;;1.07;1.07;;;;;;;;;;4995510;28;20401;-68
2022/11/07 12:36:39;;;;;;;2.40;0.90;;;;;;;;;;4995536;28;20436;-68
2022/11/07 12:39:16;;;;;;;1.60;0.97;;;;;;;;;;4995759;28;20397;-68
2022/11/07 12:41:48;;;;;;;4.93;2.00;;;;;;;;;;4995414;28;20406;-68
2022/11/07 12:44:17;;;;;;;0.83;0.83;;;;;;;;;;4995190;28;20878;-68
2022/11/07 12:46:43;;;;;;;1.13;1.00;;;;;;;;;;4993830;28;20425;-69
2022/11/07 12:49:09;;;;;;;8.60;1.63;;;;;;;;;;4994987;28;20413;-68
2022/11/07 12:51:45;;;;;;;2.77;1.03;;;;;;;;;;4995262;28;20425;-67
2022/11/07 12:54:11;;;;;;;1.50;1.10;;;;;;;;;;4995171;28;20460;-69
2022/11/07 12:56:38;;;;;;;0.80;0.80;;;;;;;;;;4994884;28;20425;-68
2022/11/07 12:59:09;;;;;;;8.93;1.13;;;;;;;;;;4995101;28;20790;-68
2022/11/07 13:01:55;;;;;;;2.30;0.83;;;;;;;;;;4995113;28;20773;-68
2022/11/07 13:04:26;;;;;;;4.60;1.00;;;;;;;;;;4994658;28;20431;-69
2022/11/07 13:06:57;;;;;;;1.70;1.00;;;;;;;;;;4994718;28;20459;-69
2022/11/07 13:09:29;;;;;;;1.93;1.83;;;;;;;;;;4994975;28;20413;-69
2022/11/07 13:12:05;;;;;;;2.10;1.20;;;;;;;;;;4994467;28;20773;-68
2022/11/07 13:14:37;;;;;;;1.20;1.10;;;;;;;;;;4994704;28;20471;-68
2022/11/07 13:17:20;;;;;;;1.23;1.23;;;;;;;;;;4994458;28;20765;-68
2022/11/07 13:19:57;;;;;;;2.80;1.53;;;;;;;;;;4994424;28;20443;-68
2022/11/07 13:22:44;;;;;;;2.00;1.13;;;;;;;;;;4994625;28;20432;-69
2022/11/07 13:25:16;;;;;;;1.70;1.17;;;;;;;;;;4994685;28;20404;-69
2022/11/07 13:27:46;;;;;;;4.43;1.07;;;;;;;;;;4994274;28;20784;-68
2022/11/07 13:30:12;;;;;;;2.23;1.00;;;;;;;;;;4994433;28;20478;-72
2022/11/07 13:32:42;;;;;;;1.53;0.80;;;;;;;;;;4994178;28;20888;-69
2022/11/07 13:35:09;;;;;;;4.67;1.30;;;;;;;;;;4994282;28;20468;-70
2022/11/07 13:37:42;;;;;;;0.87;0.70;;;;;;;;;;4994483;28;20783;-67
2022/11/07 13:40:21;;;;;;;1.40;0.67;;;;;;;;;;4994041;28;20905;-69
2022/11/07 13:42:48;;;;;;;4.43;0.97;;;;;;;;;;4994016;28;20924;-70
2022/11/07 13:45:28;;;;;;;1.70;0.70;;;;;;;;;;4994336;28;20450;-68
2022/11/07 13:47:57;;;;;;;3.50;0.90;;;;;;;;;;4994002;28;20421;-68
2022/11/07 13:50:25;;;;;;;0.83;0.83;;;;;;;;;;4992736;28;20413;-71
2022/11/07 13:52:54;;;;;;;6.93;1.30;;;;;;;;;;4994133;28;20432;-70
2022/11/07 13:55:23;;;;;;;0.73;0.70;;;;;;;;;;4994028;28;20476;-69
2022/11/07 13:58:16;;;;;;;1.50;0.90;;;;;;;;;;4993658;28;20428;-69
2022/11/07 14:00:42;;;;;;;1.40;0.60;;;;;;;;;;4992234;28;20426;-69
2022/11/07 14:06:12;;;;;;;2.93;1.27;;;;;;;;;;4993788;28;20439;-68
2022/11/07 14:08:39;;;;;;;3.23;1.10;;;;;;;;;;4993733;28;20461;-67
2022/11/07 14:11:15;;;;;;;1.23;1.13;;;;;;;;;;4994071;28;20409;-69
2022/11/07 14:13:41;;;;;;;3.87;0.90;;;;;;;;;;4994273;28;20416;-70
2022/11/07 14:16:15;;;;;;;2.57;1.90;;;;;;;;;;4993844;28;20477;-69
2022/11/07 14:19:01;;;;;;;2.73;2.50;;;;;;;;;;4993804;28;20405;-68
2022/11/07 14:21:35;;;;;;;2.40;2.30;;;;;;;;;;4993314;28;20459;-68
2022/11/07 14:24:01;;;;;;;2.47;2.33;;;;;;;;;;4993645;28;20436;-69
2022/11/07 14:26:31;;;;;;;1.80;1.70;;;;;;;;;;4993508;28;20430;-69
2022/11/07 14:28:59;;;;;;;2.00;1.43;;;;;;;;;;4992487;28;20429;-68
2022/11/07 14:31:29;;;;;;;2.93;2.40;;;;;;;;;;4993808;28;20429;-69
2022/11/07 14:34:02;;;;;;;3.20;3.10;;;;;;;;;;4993476;28;20437;-68
2022/11/07 14:36:29;;;;;;;1.77;1.67;;;;;;;;;;4993625;28;20432;-67
2022/11/07 14:39:03;;;;;;;2.20;2.07;;;;;;;;;;4993415;28;21022;-67
2022/11/07 14:41:29;;;;;;;1.30;1.30;;;;;;;;;;4993701;28;20499;-67
2022/11/07 14:43:58;;;;;;;1.57;1.33;;;;;;;;;;4993478;28;20419;-67
2022/11/07 14:46:24;;;;;;;2.57;0.63;;;;;;;;;;4993703;28;20452;-69
2022/11/07 14:48:52;;;;;;;7.70;1.10;;;;;;;;;;4993343;28;20416;-68
2022/11/07 14:51:22;;;;;;;2.00;1.27;;;;;;;;;;4993420;28;20425;-68
2022/11/07 14:53:51;;;;;;;2.67;1.20;;;;;;;;;;4993634;28;20413;-69
2022/11/07 14:56:18;;;;;;;1.17;1.17;;;;;;;;;;4993414;28;20947;-67
2022/11/07 14:58:45;;;;;;;3.43;3.27;;;;;;;;;;4993342;28;20443;-68
2022/11/07 15:01:12;;;;;;;3.00;2.87;;;;;;;;;;4994064;28;20441;-68
2022/11/07 15:03:50;;;;;;;1.57;1.47;;;;;;;;;;4993144;28;20408;-69
2022/11/07 15:06:23;;;;;;;2.23;2.10;;;;;;;;;;4993621;28;20433;-70
2022/11/07 15:08:57;;;;;;;5.40;1.10;;;;;;;;;;4993164;28;20898;-70
2022/11/07 15:11:29;;;;;;;3.10;1.43;;;;;;;;;;4996391;28;20855;-69
2022/11/07 15:13:55;;;;;;;1.90;1.07;;;;;;;;;;4996984;28;20424;-71